createdAt,value
2018-08-28T00:00:59.203Z,63.90
2018-08-28T00:03:57.682Z,63.90
2018-08-28T00:06:38.760Z,63.10
2018-08-28T00:09:26.171Z,63.50
2018-08-28T00:14:49.767Z,64.00
2018-08-28T00:20:25.240Z,64.20
2018-08-28T00:29:04.696Z,65.30
2018-08-28T00:31:41.093Z,65.50
2018-08-28T00:34:13.349Z,65.40
2018-08-28T00:36:46.137Z,66.10
2018-08-28T00:39:23.340Z,66.20
2018-08-28T00:42:11.630Z,67.10
2018-08-28T00:45:19.164Z,67.30
2018-08-28T00:48:14.371Z,67.40
2018-08-28T00:50:54.671Z,67.20
2018-08-28T00:53:32.537Z,67.40
2018-08-28T00:56:10.840Z,67.90
2018-08-28T00:58:48.420Z,68.20
2018-08-28T01:01:25.880Z,68.30
2018-08-28T01:03:58.357Z,68.80
2018-08-28T01:06:33.149Z,69.10
2018-08-28T01:09:16.338Z,68.90
2018-08-28T01:11:58.770Z,69.10
2018-08-28T01:14:37.747Z,69.20
2018-08-28T01:17:11.762Z,69.50
2018-08-28T01:19:57.777Z,69.40
2018-08-28T01:22:40.013Z,69.50
2018-08-28T01:25:16.127Z,70.00
2018-08-28T01:27:48.081Z,69.90
2018-08-28T01:30:27.830Z,69.80
2018-08-28T01:33:05.040Z,69.60
2018-08-28T01:35:36.264Z,69.60
2018-08-28T01:38:20.003Z,70.80
2018-08-28T01:46:42.312Z,69.00
2018-08-28T01:49:25.701Z,69.00
2018-08-28T01:52:04.006Z,69.40
2018-08-28T02:08:11.223Z,68.60
2018-08-28T02:10:40.624Z,68.70
2018-08-28T02:13:09.524Z,68.10
2018-08-28T02:15:38.266Z,68.00
2018-08-28T02:18:07.374Z,67.50
2018-08-28T02:20:36.522Z,68.40
2018-08-28T02:23:05.890Z,67.90
2018-08-28T02:25:35.313Z,67.90
2018-08-28T02:28:04.934Z,67.50
2018-08-28T02:30:36.208Z,67.40
2018-08-28T02:33:07.630Z,67.50
2018-08-28T02:35:38.586Z,67.60
2018-08-28T02:38:25.336Z,67.50
2018-08-28T02:41:16.929Z,67.60
2018-08-28T02:44:03.234Z,67.30
2018-08-28T02:49:30.082Z,67.10
2018-08-28T02:52:01.708Z,66.80
2018-08-28T02:54:35.685Z,66.50
2018-08-28T02:57:07.076Z,66.50
2018-08-28T02:59:54.551Z,65.90
2018-08-28T03:02:31.305Z,65.60
2018-08-28T03:05:17.699Z,65.40
2018-08-28T03:10:46.350Z,65.20
2018-08-28T03:13:20.525Z,65.00
2018-08-28T03:15:53.684Z,64.70
2018-08-28T03:18:33.159Z,64.70
2018-08-28T03:21:03.537Z,64.60
2018-08-28T03:23:34.302Z,64.40
2018-08-28T03:26:03.458Z,64.40
2018-08-28T03:28:32.778Z,64.10
2018-08-28T03:31:02.584Z,63.80
2018-08-28T03:33:31.526Z,64.00
2018-08-28T03:36:02.789Z,64.10
2018-08-28T03:38:33.155Z,63.80
2018-08-28T03:41:05.992Z,63.80
2018-08-28T03:43:53.219Z,63.70
2018-08-28T03:46:24.216Z,63.60
2018-08-28T03:48:53.759Z,63.80
2018-08-28T03:51:24.842Z,63.60
2018-08-28T03:53:55.271Z,63.90
2018-08-28T03:56:24.702Z,63.90
2018-08-28T03:58:54.858Z,64.00
2018-08-28T04:01:24.965Z,63.80
2018-08-28T04:03:55.135Z,63.60
2018-08-28T04:06:25.242Z,63.40
2018-08-28T04:08:54.871Z,63.20
2018-08-28T04:11:24.444Z,63.40
2018-08-28T04:14:00.693Z,63.60
2018-08-28T04:16:32.185Z,63.20
2018-08-28T04:21:44.572Z,63.40
2018-08-28T04:24:34.941Z,62.50
2018-08-28T04:27:08.208Z,62.60
2018-08-28T04:29:43.036Z,62.60
2018-08-28T04:32:26.699Z,62.20
2018-08-28T04:35:03.572Z,62.40
2018-08-28T04:37:37.607Z,62.20
2018-08-28T04:40:19.709Z,62.50
2018-08-28T04:43:02.141Z,63.70
2018-08-28T05:00:02.393Z,63.20
2018-08-28T05:02:39.351Z,63.20
2018-08-28T05:05:20.718Z,63.30
2018-08-28T05:08:02.928Z,63.10
2018-08-28T05:24:25.441Z,63.30
2018-08-28T05:26:56.152Z,62.60
2018-08-28T05:29:26.017Z,62.10
2018-08-28T05:32:03.678Z,62.30
2018-08-28T05:34:35.331Z,61.60
2018-08-28T05:37:04.801Z,61.60
2018-08-28T05:39:35.842Z,61.60
2018-08-28T05:42:08.726Z,61.70
2018-08-28T05:44:40.619Z,61.50
2018-08-28T05:47:15.267Z,60.90
2018-08-28T05:49:54.596Z,60.50
2018-08-28T05:52:35.675Z,59.50
2018-08-28T05:55:18.805Z,57.60
2018-08-28T05:57:52.313Z,56.20
2018-08-28T06:00:31.229Z,54.90
2018-08-28T06:03:05.150Z,53.80
2018-08-28T06:05:46.328Z,52.00
2018-08-28T06:08:25.807Z,50.90
2018-08-28T06:11:19.857Z,49.50
2018-08-28T06:14:32.211Z,48.20
2018-08-28T06:17:15.698Z,47.70
2018-08-28T06:20:04.982Z,46.50
2018-08-28T06:25:55.355Z,44.50
2018-08-28T06:28:37.065Z,44.10
2018-08-28T06:34:11.438Z,42.00
2018-08-28T06:37:03.930Z,43.10
2018-08-28T06:40:07.536Z,42.10
2018-08-28T06:42:50.104Z,42.00
2018-08-28T06:45:38.420Z,42.10
2018-08-28T06:48:40.036Z,41.00
2018-08-28T06:51:29.891Z,39.40
2018-08-28T06:56:54.180Z,38.20
2018-08-28T12:25:54.924Z,34.50
2018-08-28T12:28:23.981Z,19.60
2018-08-28T12:30:52.862Z,18.70
2018-08-28T12:33:21.996Z,17.30
2018-08-28T12:35:51.471Z,15.60
2018-08-28T12:38:21.050Z,15.50
2018-08-28T12:40:51.886Z,15.10
2018-08-28T12:43:21.568Z,14.50
2018-08-28T12:45:50.989Z,14.40
2018-08-28T12:48:21.764Z,14.60
2018-08-28T12:50:53.249Z,15.70
2018-08-28T12:53:27.672Z,15.50
2018-08-28T12:56:08.343Z,15.20
2018-08-28T13:04:19.907Z,15.30
2018-08-28T17:14:28.971Z,29.10
2018-08-28T17:16:58.376Z,29.50
2018-08-28T17:19:28.117Z,29.70
2018-08-28T17:21:58.573Z,29.60
2018-08-28T17:24:35.559Z,30.00
2018-08-28T17:27:05.397Z,30.50
2018-08-28T17:29:37.273Z,29.80
2018-08-28T17:32:13.768Z,29.80
2018-08-28T17:35:12.580Z,29.80
2018-08-28T17:47:09.849Z,31.50
2018-08-28T17:49:59.113Z,31.10
2018-08-28T17:52:30.052Z,31.50
2018-08-28T17:55:04.630Z,32.00
2018-08-28T17:57:36.479Z,32.00
2018-08-28T18:00:19.673Z,32.30
2018-08-28T18:03:00.248Z,32.60
2018-08-28T18:05:31.353Z,32.90
2018-08-28T18:08:02.570Z,34.30
2018-08-28T18:10:38.727Z,35.10
2018-08-28T18:13:14.423Z,36.10
2018-08-28T18:15:43.973Z,37.40
2018-08-28T18:18:15.232Z,37.90
2018-08-28T18:21:26.441Z,38.30
2018-08-28T18:29:23.365Z,39.30
2018-08-28T18:31:58.978Z,39.90
2018-08-28T18:34:49.732Z,40.10
2018-08-28T18:37:27.198Z,40.80
2018-08-28T18:40:05.054Z,41.10
2018-08-28T18:42:36.725Z,41.10
2018-08-28T18:45:10.078Z,41.00
2018-08-28T18:47:41.836Z,41.50
2018-08-28T18:50:15.951Z,41.90
2018-08-28T18:52:48.340Z,41.80
2018-08-28T18:55:19.175Z,42.00
2018-08-28T18:57:50.057Z,42.40
2018-08-28T19:00:20.615Z,42.30
2018-08-28T19:02:50.928Z,42.10
2018-08-28T19:05:20.542Z,42.10
2018-08-28T19:08:37.689Z,42.10
2018-08-28T19:11:26.672Z,42.50
2018-08-28T19:17:20.728Z,42.80
2018-08-28T19:20:04.559Z,43.20
2018-08-28T19:22:44.355Z,43.30
2018-08-28T19:25:24.163Z,43.20
